sensor_id;sensor_type;location;lat;lon;timestamp;pressure;altitude;pressure_sealevel;temperature;humidity
57644;BME280;43474;46.510;6.686;2023-03-15T00:00:27;96334.03;;;4.16;100.00
57644;BME280;43474;46.510;6.686;2023-03-15T00:03:13;96341.31;;;4.27;100.00
57644;BME280;43474;46.510;6.686;2023-03-15T00:05:43;96348.59;;;4.32;100.00
57644;BME280;43474;46.510;6.686;2023-03-15T00:08:09;96357.91;;;4.34;100.00
57644;BME280;43474;46.510;6.686;2023-03-15T00:10:45;96365.38;;;4.37;100.00
57644;BME280;43474;46.510;6.686;2023-03-15T00:13:13;96370.03;;;4.42;100.00
57644;BME280;43474;46.510;6.686;2023-03-15T00:15:47;96371.25;;;4.39;100.00
57644;BME280;43474;46.510;6.686;2023-03-15T00:18:14;96382.75;;;4.45;100.00
57644;BME280;43474;46.510;6.686;2023-03-15T00:20:40;96386.75;;;4.28;100.00
57644;BME280;43474;46.510;6.686;2023-03-15T00:23:06;96388.97;;;4.31;100.00
57644;BME280;43474;46.510;6.686;2023-03-15T00:25:31;96383.09;;;4.22;100.00
57644;BME280;43474;46.510;6.686;2023-03-15T00:27:57;96371.38;;;4.18;100.00
57644;BME280;43474;46.510;6.686;2023-03-15T00:30:22;96380.06;;;4.25;100.00
57644;BME280;43474;46.510;6.686;2023-03-15T00:32:51;96380.06;;;4.19;100.00
57644;BME280;43474;46.510;6.686;2023-03-15T00:35:18;96386.91;;;4.20;100.00
57644;BME280;43474;46.510;6.686;2023-03-15T00:37:44;96397.00;;;4.16;100.00
57644;BME280;43474;46.510;6.686;2023-03-15T00:40:11;96387.72;;;4.13;100.00
57644;BME280;43474;46.510;6.686;2023-03-15T00:42:37;96381.88;;;4.18;100.00
57644;BME280;43474;46.510;6.686;2023-03-15T00:45:04;96399.84;;;4.21;100.00
57644;BME280;43474;46.510;6.686;2023-03-15T00:47:30;96395.38;;;4.22;100.00
57644;BME280;43474;46.510;6.686;2023-03-15T00:49:55;96403.44;;;4.13;100.00
57644;BME280;43474;46.510;6.686;2023-03-15T00:52:21;96398.97;;;4.07;100.00
57644;BME280;43474;46.510;6.686;2023-03-15T00:54:51;96413.91;;;4.07;100.00
57644;BME280;43474;46.510;6.686;2023-03-15T00:57:18;96412.06;;;4.07;100.00
57644;BME280;43474;46.510;6.686;2023-03-15T00:59:43;96421.81;;;4.13;100.00
57644;BME280;43474;46.510;6.686;2023-03-15T01:02:09;96407.19;;;3.98;100.00
57644;BME280;43474;46.510;6.686;2023-03-15T01:04:35;96421.38;;;4.03;100.00
57644;BME280;43474;46.510;6.686;2023-03-15T01:07:01;96428.59;;;4.01;100.00
57644;BME280;43474;46.510;6.686;2023-03-15T01:09:27;96416.69;;;3.99;100.00
57644;BME280;43474;46.510;6.686;2023-03-15T01:11:53;96420.47;;;3.89;100.00
57644;BME280;43474;46.510;6.686;2023-03-15T01:14:18;96416.69;;;3.99;100.00
57644;BME280;43474;46.510;6.686;2023-03-15T01:16:44;96431.66;;;4.05;100.00
57644;BME280;43474;46.510;6.686;2023-03-15T01:19:11;96441.75;;;4.08;100.00
57644;BME280;43474;46.510;6.686;2023-03-15T01:21:37;96437.31;;;4.08;100.00
57644;BME280;43474;46.510;6.686;2023-03-15T01:24:03;96447.19;;;4.06;100.00
57644;BME280;43474;46.510;6.686;2023-03-15T01:26:29;96442.28;;;3.97;100.00
57644;BME280;43474;46.510;6.686;2023-03-15T01:28:54;96446.78;;;4.03;100.00
57644;BME280;43474;46.510;6.686;2023-03-15T01:31:26;96437.03;;;3.97;100.00
57644;BME280;43474;46.510;6.686;2023-03-15T01:33:52;96426.53;;;3.90;100.00
57644;BME280;43474;46.510;6.686;2023-03-15T01:36:18;96441.09;;;3.99;100.00
57644;BME280;43474;46.510;6.686;2023-03-15T01:38:43;96438.03;;;3.89;100.00
57644;BME280;43474;46.510;6.686;2023-03-15T01:41:13;96429.50;;;3.80;100.00
57644;BME280;43474;46.510;6.686;2023-03-15T01:43:39;96433.84;;;3.67;100.00
57644;BME280;43474;46.510;6.686;2023-03-15T01:46:24;96418.00;;;3.47;100.00
57644;BME280;43474;46.510;6.686;2023-03-15T01:48:56;96429.50;;;3.46;100.00
57644;BME280;43474;46.510;6.686;2023-03-15T01:56:26;96431.06;;;3.12;100.00
57644;BME280;43474;46.510;6.686;2023-03-15T01:58:54;96435.59;;;3.25;100.00
57644;BME280;43474;46.510;6.686;2023-03-15T02:01:23;96423.69;;;3.22;100.00
57644;BME280;43474;46.510;6.686;2023-03-15T02:03:55;96427.22;;;3.36;100.00
57644;BME280;43474;46.510;6.686;2023-03-15T02:06:23;96419.47;;;3.28;100.00
57644;BME280;43474;46.510;6.686;2023-03-15T02:09:02;96415.09;;;3.28;100.00
57644;BME280;43474;46.510;6.686;2023-03-15T02:11:29;96430.97;;;3.27;100.00
57644;BME280;43474;46.510;6.686;2023-03-15T02:13:55;96413.06;;;3.30;100.00
57644;BME280;43474;46.510;6.686;2023-03-15T02:16:23;96408.59;;;3.24;100.00
57644;BME280;43474;46.510;6.686;2023-03-15T02:18:49;96414.06;;;3.29;100.00
57644;BME280;43474;46.510;6.686;2023-03-15T02:21:35;96425.56;;;3.28;100.00
57644;BME280;43474;46.510;6.686;2023-03-15T02:26:43;96424.41;;;3.37;100.00
57644;BME280;43474;46.510;6.686;2023-03-15T02:29:09;96408.59;;;3.24;100.00
57644;BME280;43474;46.510;6.686;2023-03-15T02:31:36;96414.25;;;3.28;100.00
57644;BME280;43474;46.510;6.686;2023-03-15T02:34:06;96400.59;;;3.04;100.00
57644;BME280;43474;46.510;6.686;2023-03-15T02:36:33;96416.66;;;3.01;100.00
57644;BME280;43474;46.510;6.686;2023-03-15T02:39:00;96423.66;;;2.94;100.00
57644;BME280;43474;46.510;6.686;2023-03-15T02:41:30;96413.13;;;2.88;100.00
57644;BME280;43474;46.510;6.686;2023-03-15T02:44:10;96405.34;;;2.73;100.00
57644;BME280;43474;46.510;6.686;2023-03-15T02:46:39;96407.66;;;2.61;100.00
57644;BME280;43474;46.510;6.686;2023-03-15T02:49:06;96413.69;;;2.40;100.00
57644;BME280;43474;46.510;6.686;2023-03-15T02:51:33;96434.34;;;2.35;100.00
57644;BME280;43474;46.510;6.686;2023-03-15T02:53:58;96427.91;;;2.16;100.00
57644;BME280;43474;46.510;6.686;2023-03-15T02:56:24;96431.88;;;2.12;100.00
57644;BME280;43474;46.510;6.686;2023-03-15T02:58:50;96433.50;;;1.98;100.00
57644;BME280;43474;46.510;6.686;2023-03-15T03:01:16;96440.19;;;1.86;100.00
57644;BME280;43474;46.510;6.686;2023-03-15T03:03:43;96450.38;;;1.81;100.00
57644;BME280;43474;46.510;6.686;2023-03-15T03:06:11;96449.91;;;1.63;100.00
57644;BME280;43474;46.510;6.686;2023-03-15T03:08:37;96457.75;;;1.63;100.00
57644;BME280;43474;46.510;6.686;2023-03-15T03:11:03;96449.34;;;1.38;100.00
57644;BME280;43474;46.510;6.686;2023-03-15T03:13:29;96452.88;;;1.30;100.00
57644;BME280;43474;46.510;6.686;2023-03-15T03:15:55;96451.06;;;1.31;100.00
57644;BME280;43474;46.510;6.686;2023-03-15T03:18:27;96456.03;;;1.40;100.00
57644;BME280;43474;46.510;6.686;2023-03-15T03:20:57;96467.63;;;1.38;100.00
57644;BME280;43474;46.510;6.686;2023-03-15T03:23:24;96463.50;;;1.43;100.00
57644;BME280;43474;46.510;6.686;2023-03-15T03:25:54;96460.44;;;1.40;100.00
57644;BME280;43474;46.510;6.686;2023-03-15T03:28:21;96464.69;;;1.41;100.00
57644;BME280;43474;46.510;6.686;2023-03-15T03:30:49;96461.13;;;1.34;100.00
57644;BME280;43474;46.510;6.686;2023-03-15T03:33:15;96462.34;;;1.08;100.00
57644;BME280;43474;46.510;6.686;2023-03-15T03:35:41;96465.75;;;1.09;100.00
57644;BME280;43474;46.510;6.686;2023-03-15T03:38:07;96476.28;;;1.00;100.00
57644;BME280;43474;46.510;6.686;2023-03-15T03:40:33;96477.56;;;1.05;100.00
57644;BME280;43474;46.510;6.686;2023-03-15T03:42:59;96477.38;;;1.06;100.00
57644;BME280;43474;46.510;6.686;2023-03-15T03:45:25;96466.88;;;0.91;100.00
57644;BME280;43474;46.510;6.686;2023-03-15T03:47:50;96481.84;;;0.97;100.00
57644;BME280;43474;46.510;6.686;2023-03-15T03:50:16;96471.63;;;0.88;100.00
57644;BME280;43474;46.510;6.686;2023-03-15T03:52:42;96486.75;;;0.92;100.00
57644;BME280;43474;46.510;6.686;2023-03-15T03:55:09;96489.03;;;0.95;100.00
57644;BME280;43474;46.510;6.686;2023-03-15T03:57:38;96477.75;;;0.80;100.00
57644;BME280;43474;46.510;6.686;2023-03-15T04:00:05;96492.03;;;0.84;100.00
57644;BME280;43474;46.510;6.686;2023-03-15T04:02:30;96496.63;;;0.82;100.00
57644;BME280;43474;46.510;6.686;2023-03-15T04:04:56;96500.00;;;0.91;100.00
57644;BME280;43474;46.510;6.686;2023-03-15T04:07:22;96484.91;;;0.78;100.00
57644;BME280;43474;46.510;6.686;2023-03-15T04:09:48;96498.31;;;0.75;100.00
57644;BME280;43474;46.510;6.686;2023-03-15T04:12:13;96493.63;;;0.70;100.00
57644;BME280;43474;46.510;6.686;2023-03-15T04:14:39;96494.06;;;0.74;100.00
57644;BME280;43474;46.510;6.686;2023-03-15T04:17:04;96487.13;;;0.66;100.00
57644;BME280;43474;46.510;6.686;2023-03-15T04:19:30;96503.47;;;0.83;100.00
57644;BME280;43474;46.510;6.686;2023-03-15T04:21:55;96497.25;;;0.84;100.00
57644;BME280;43474;46.510;6.686;2023-03-15T04:24:21;96483.84;;;0.64;100.00
57644;BME280;43474;46.510;6.686;2023-03-15T04:26:47;96483.63;;;0.51;100.00
57644;BME280;43474;46.510;6.686;2023-03-15T04:29:12;96498.56;;;0.57;100.00
57644;BME280;43474;46.510;6.686;2023-03-15T04:31:39;96507.91;;;0.51;100.00
57644;BME280;43474;46.510;6.686;2023-03-15T04:34:07;96502.72;;;0.43;100.00
57644;BME280;43474;46.510;6.686;2023-03-15T04:36:33;96486.75;;;0.46;100.00
57644;BME280;43474;46.510;6.686;2023-03-15T04:38:59;96489.56;;;0.37;100.00
57644;BME280;43474;46.510;6.686;2023-03-15T04:41:32;96509.50;;;0.52;100.00
57644;BME280;43474;46.510;6.686;2023-03-15T04:44:00;96502.16;;;0.56;100.00
57644;BME280;43474;46.510;6.686;2023-03-15T04:46:25;96480.72;;;0.46;100.00
57644;BME280;43474;46.510;6.686;2023-03-15T04:48:51;96501.19;;;0.57;100.00
57644;BME280;43474;46.510;6.686;2023-03-15T04:51:16;96510.13;;;0.55;100.00
57644;BME280;43474;46.510;6.686;2023-03-15T04:53:42;96500.16;;;0.35;100.00
57644;BME280;43474;46.510;6.686;2023-03-15T04:56:07;96498.31;;;0.44;100.00
57644;BME280;43474;46.510;6.686;2023-03-15T04:58:33;96511.34;;;0.44;100.00
57644;BME280;43474;46.510;6.686;2023-03-15T05:00:58;96496.38;;;0.38;100.00
57644;BME280;43474;46.510;6.686;2023-03-15T05:03:24;96507.38;;;0.25;100.00
57644;BME280;43474;46.510;6.686;2023-03-15T05:05:49;96513.44;;;0.17;100.00
57644;BME280;43474;46.510;6.686;2023-03-15T05:08:15;96538.50;;;0.18;100.00
57644;BME280;43474;46.510;6.686;2023-03-15T05:10:41;96535.59;;;0.13;100.00
57644;BME280;43474;46.510;6.686;2023-03-15T05:13:07;96533.34;;;0.10;100.00
57644;BME280;43474;46.510;6.686;2023-03-15T05:15:32;96546.81;;;0.14;100.00
57644;BME280;43474;46.510;6.686;2023-03-15T05:17:58;96526.94;;;0.13;100.00
57644;BME280;43474;46.510;6.686;2023-03-15T05:20:24;96544.25;;;-0.03;100.00
57644;BME280;43474;46.510;6.686;2023-03-15T05:22:50;96555.00;;;0.03;100.00
57644;BME280;43474;46.510;6.686;2023-03-15T05:25:17;96543.63;;;-0.13;100.00
57644;BME280;43474;46.510;6.686;2023-03-15T05:27:43;96542.66;;;-0.12;100.00
57644;BME280;43474;46.510;6.686;2023-03-15T05:30:10;96554.09;;;-0.29;100.00
57644;BME280;43474;46.510;6.686;2023-03-15T05:32:36;96544.00;;;-0.24;100.00
57644;BME280;43474;46.510;6.686;2023-03-15T05:35:06;96556.84;;;-0.31;100.00
57644;BME280;43474;46.510;6.686;2023-03-15T05:37:32;96561.88;;;-0.21;100.00
57644;BME280;43474;46.510;6.686;2023-03-15T05:39:58;96565.78;;;-0.25;100.00
57644;BME280;43474;46.510;6.686;2023-03-15T05:42:24;96572.31;;;-0.37;100.00
57644;BME280;43474;46.510;6.686;2023-03-15T05:44:51;96563.06;;;-0.48;100.00
57644;BME280;43474;46.510;6.686;2023-03-15T05:47:17;96565.19;;;-0.43;100.00
57644;BME280;43474;46.510;6.686;2023-03-15T05:49:42;96572.63;;;-0.24;100.00
57644;BME280;43474;46.510;6.686;2023-03-15T05:52:08;96572.31;;;-0.29;100.00
57644;BME280;43474;46.510;6.686;2023-03-15T05:54:34;96584.53;;;-0.30;100.00
57644;BME280;43474;46.510;6.686;2023-03-15T05:56:59;96575.56;;;-0.35;100.00
57644;BME280;43474;46.510;6.686;2023-03-15T05:59:25;96564.00;;;-0.41;100.00
57644;BME280;43474;46.510;6.686;2023-03-15T06:01:51;96577.03;;;-0.24;100.00
57644;BME280;43474;46.510;6.686;2023-03-15T06:04:16;96581.59;;;-0.35;100.00
57644;BME280;43474;46.510;6.686;2023-03-15T06:06:42;96546.63;;;-0.57;100.00
57644;BME280;43474;46.510;6.686;2023-03-15T06:09:08;96585.66;;;-0.40;100.00
57644;BME280;43474;46.510;6.686;2023-03-15T06:11:33;96571.50;;;-0.30;100.00
57644;BME280;43474;46.510;6.686;2023-03-15T06:13:59;96574.56;;;-0.10;100.00
57644;BME280;43474;46.510;6.686;2023-03-15T06:16:24;96583.16;;;0.07;100.00
57644;BME280;43474;46.510;6.686;2023-03-15T06:18:50;96574.66;;;0.13;100.00
57644;BME280;43474;46.510;6.686;2023-03-15T06:21:16;96579.19;;;0.19;100.00
57644;BME280;43474;46.510;6.686;2023-03-15T06:23:41;96571.06;;;0.14;100.00
57644;BME280;43474;46.510;6.686;2023-03-15T06:26:07;96586.50;;;0.32;100.00
57644;BME280;43474;46.510;6.686;2023-03-15T06:28:32;96591.34;;;0.43;100.00
57644;BME280;43474;46.510;6.686;2023-03-15T06:31:05;96598.34;;;0.51;100.00
57644;BME280;43474;46.510;6.686;2023-03-15T06:33:30;96598.66;;;0.48;100.00
57644;BME280;43474;46.510;6.686;2023-03-15T06:35:56;96597.34;;;0.52;100.00
57644;BME280;43474;46.510;6.686;2023-03-15T06:38:22;96611.28;;;0.75;100.00
57644;BME280;43474;46.510;6.686;2023-03-15T06:40:47;96607.69;;;0.76;100.00
57644;BME280;43474;46.510;6.686;2023-03-15T06:43:13;96609.09;;;0.87;100.00
57644;BME280;43474;46.510;6.686;2023-03-15T06:45:44;96604.66;;;0.96;100.00
57644;BME280;43474;46.510;6.686;2023-03-15T06:48:11;96617.72;;;1.19;100.00
57644;BME280;43474;46.510;6.686;2023-03-15T06:50:37;96629.78;;;1.20;100.00
57644;BME280;43474;46.510;6.686;2023-03-15T06:53:03;96605.53;;;1.11;100.00
57644;BME280;43474;46.510;6.686;2023-03-15T06:55:28;96630.09;;;1.25;100.00
57644;BME280;43474;46.510;6.686;2023-03-15T06:57:54;96626.22;;;1.13;100.00
57644;BME280;43474;46.510;6.686;2023-03-15T07:00:19;96622.34;;;1.09;100.00
57644;BME280;43474;46.510;6.686;2023-03-15T07:02:45;96639.84;;;1.31;100.00
57644;BME280;43474;46.510;6.686;2023-03-15T07:05:11;96644.88;;;1.33;100.00
57644;BME280;43474;46.510;6.686;2023-03-15T07:07:36;96634.63;;;1.31;100.00
57644;BME280;43474;46.510;6.686;2023-03-15T07:10:02;96645.81;;;1.40;100.00
57644;BME280;43474;46.510;6.686;2023-03-15T07:12:28;96640.94;;;1.37;100.00
57644;BME280;43474;46.510;6.686;2023-03-15T07:14:53;96637.16;;;1.62;100.00
57644;BME280;43474;46.510;6.686;2023-03-15T07:17:19;96653.13;;;1.90;100.00
57644;BME280;43474;46.510;6.686;2023-03-15T07:19:44;96652.44;;;2.11;100.00
57644;BME280;43474;46.510;6.686;2023-03-15T07:22:10;96648.66;;;2.28;100.00
57644;BME280;43474;46.510;6.686;2023-03-15T07:24:35;96652.50;;;2.55;100.00
57644;BME280;43474;46.510;6.686;2023-03-15T07:27:01;96649.69;;;2.72;100.00
57644;BME280;43474;46.510;6.686;2023-03-15T07:29:28;96644.63;;;3.00;100.00
57644;BME280;43474;46.510;6.686;2023-03-15T07:31:53;96659.34;;;3.80;100.00
57644;BME280;43474;46.510;6.686;2023-03-15T07:34:19;96666.81;;;5.43;100.00
57644;BME280;43474;46.510;6.686;2023-03-15T07:36:46;96649.09;;;6.64;100.00
57644;BME280;43474;46.510;6.686;2023-03-15T07:39:12;96644.31;;;7.13;98.94
57644;BME280;43474;46.510;6.686;2023-03-15T07:41:37;96655.75;;;7.76;96.58
57644;BME280;43474;46.510;6.686;2023-03-15T07:44:03;96670.94;;;8.38;95.22
57644;BME280;43474;46.510;6.686;2023-03-15T07:46:28;96651.78;;;8.67;92.81
57644;BME280;43474;46.510;6.686;2023-03-15T07:48:55;96667.72;;;9.34;96.37
57644;BME280;43474;46.510;6.686;2023-03-15T07:51:20;96655.25;;;9.71;90.31
57644;BME280;43474;46.510;6.686;2023-03-15T07:53:46;96655.56;;;10.05;95.31
57644;BME280;43474;46.510;6.686;2023-03-15T07:56:12;96661.69;;;10.17;88.13
57644;BME280;43474;46.510;6.686;2023-03-15T07:58:37;96661.81;;;10.10;89.69
57644;BME280;43474;46.510;6.686;2023-03-15T08:01:03;96667.09;;;10.10;88.75
57644;BME280;43474;46.510;6.686;2023-03-15T08:03:29;96668.31;;;10.73;95.02
57644;BME280;43474;46.510;6.686;2023-03-15T08:05:54;96675.72;;;10.59;81.25
57644;BME280;43474;46.510;6.686;2023-03-15T08:08:20;96678.34;;;10.83;86.63
57644;BME280;43474;46.510;6.686;2023-03-15T08:10:45;96675.38;;;10.79;84.67
57644;BME280;43474;46.510;6.686;2023-03-15T08:13:12;96678.22;;;11.01;86.80
57644;BME280;43474;46.510;6.686;2023-03-15T08:15:37;96674.56;;;10.91;84.61
57644;BME280;43474;46.510;6.686;2023-03-15T08:18:03;96678.88;;;11.32;81.06
57644;BME280;43474;46.510;6.686;2023-03-15T08:20:30;96683.97;;;11.22;79.54
57644;BME280;43474;46.510;6.686;2023-03-15T08:22:58;96681.75;;;11.19;80.90
57644;BME280;43474;46.510;6.686;2023-03-15T08:25:24;96682.00;;;11.29;82.90
57644;BME280;43474;46.510;6.686;2023-03-15T08:27:51;96674.22;;;11.79;76.53
57644;BME280;43474;46.510;6.686;2023-03-15T08:30:17;96683.50;;;11.25;80.36
57644;BME280;43474;46.510;6.686;2023-03-15T08:32:45;96676.06;;;11.38;78.68
57644;BME280;43474;46.510;6.686;2023-03-15T08:35:13;96682.59;;;11.59;79.35
57644;BME280;43474;46.510;6.686;2023-03-15T08:37:40;96674.34;;;11.73;79.75
57644;BME280;43474;46.510;6.686;2023-03-15T08:40:06;96669.75;;;11.68;71.60
57644;BME280;43474;46.510;6.686;2023-03-15T08:42:38;96673.97;;;11.52;75.32
57644;BME280;43474;46.510;6.686;2023-03-15T08:45:04;96681.72;;;11.82;76.01
57644;BME280;43474;46.510;6.686;2023-03-15T08:47:34;96679.47;;;11.62;73.71
57644;BME280;43474;46.510;6.686;2023-03-15T08:50:04;96663.50;;;11.74;80.73
57644;BME280;43474;46.510;6.686;2023-03-15T08:52:30;96686.44;;;11.80;71.88
57644;BME280;43474;46.510;6.686;2023-03-15T08:54:56;96697.69;;;11.71;72.98
57644;BME280;43474;46.510;6.686;2023-03-15T08:57:22;96685.44;;;11.70;75.65
57644;BME280;43474;46.510;6.686;2023-03-15T08:59:51;96687.94;;;11.88;73.21
57644;BME280;43474;46.510;6.686;2023-03-15T09:02:17;96690.50;;;11.71;72.55
57644;BME280;43474;46.510;6.686;2023-03-15T09:04:43;96684.09;;;11.96;75.08
57644;BME280;43474;46.510;6.686;2023-03-15T09:07:08;96675.94;;;12.48;79.26
57644;BME280;43474;46.510;6.686;2023-03-15T09:09:34;96668.59;;;12.38;72.83
57644;BME280;43474;46.510;6.686;2023-03-15T09:12:00;96681.88;;;12.04;74.54
57644;BME280;43474;46.510;6.686;2023-03-15T09:14:25;96683.94;;;12.02;64.55
57644;BME280;43474;46.510;6.686;2023-03-15T09:16:51;96684.16;;;12.29;72.09
57644;BME280;43474;46.510;6.686;2023-03-15T09:19:16;96696.22;;;12.71;69.61
57644;BME280;43474;46.510;6.686;2023-03-15T09:21:42;96691.97;;;12.36;65.87
57644;BME280;43474;46.510;6.686;2023-03-15T09:24:09;96682.03;;;12.31;69.14
57644;BME280;43474;46.510;6.686;2023-03-15T09:26:35;96701.91;;;12.12;66.07
57644;BME280;43474;46.510;6.686;2023-03-15T09:29:00;96689.59;;;12.23;64.66
57644;BME280;43474;46.510;6.686;2023-03-15T09:31:26;96699.97;;;12.07;65.94
57644;BME280;43474;46.510;6.686;2023-03-15T09:33:51;96698.28;;;12.01;64.99
57644;BME280;43474;46.510;6.686;2023-03-15T09:36:17;96710.47;;;12.14;64.14
57644;BME280;43474;46.510;6.686;2023-03-15T09:38:43;96705.28;;;12.07;66.04
57644;BME280;43474;46.510;6.686;2023-03-15T09:46:39;96715.25;;;12.29;64.78
57644;BME280;43474;46.510;6.686;2023-03-15T09:49:13;96709.19;;;11.76;62.01
57644;BME280;43474;46.510;6.686;2023-03-15T09:51:54;96701.88;;;12.24;65.87
57644;BME280;43474;46.510;6.686;2023-03-15T09:56:57;96712.25;;;12.42;62.39
57644;BME280;43474;46.510;6.686;2023-03-15T09:59:29;96696.94;;;12.15;61.88
57644;BME280;43474;46.510;6.686;2023-03-15T10:02:00;96692.94;;;12.30;59.60
57644;BME280;43474;46.510;6.686;2023-03-15T10:04:29;96694.75;;;12.12;60.66
57644;BME280;43474;46.510;6.686;2023-03-15T10:06:57;96701.94;;;12.29;63.32
57644;BME280;43474;46.510;6.686;2023-03-15T10:09:25;96696.13;;;12.15;58.26
57644;BME280;43474;46.510;6.686;2023-03-15T10:12:00;96707.56;;;12.32;56.49
57644;BME280;43474;46.510;6.686;2023-03-15T10:17:14;96702.41;;;12.26;59.42
57644;BME280;43474;46.510;6.686;2023-03-15T10:19:57;96712.75;;;12.56;62.27
57644;BME280;43474;46.510;6.686;2023-03-15T10:22:33;96717.66;;;12.81;66.20
57644;BME280;43474;46.510;6.686;2023-03-15T10:25:09;96720.03;;;13.16;56.78
57644;BME280;43474;46.510;6.686;2023-03-15T10:27:49;96723.31;;;12.84;57.23
57644;BME280;43474;46.510;6.686;2023-03-15T10:30:19;96718.38;;;12.76;55.79
57644;BME280;43474;46.510;6.686;2023-03-15T10:32:51;96698.41;;;12.57;56.69
57644;BME280;43474;46.510;6.686;2023-03-15T10:35:18;96709.59;;;12.76;53.74
57644;BME280;43474;46.510;6.686;2023-03-15T10:37:44;96700.75;;;12.70;53.70
57644;BME280;43474;46.510;6.686;2023-03-15T10:40:11;96717.81;;;12.57;55.52
57644;BME280;43474;46.510;6.686;2023-03-15T10:42:45;96714.34;;;12.57;58.20
57644;BME280;43474;46.510;6.686;2023-03-15T10:45:23;96704.59;;;12.29;56.48
57644;BME280;43474;46.510;6.686;2023-03-15T10:47:50;96702.66;;;12.41;55.51
57644;BME280;43474;46.510;6.686;2023-03-15T10:50:32;96696.63;;;12.29;57.22
57644;BME280;43474;46.510;6.686;2023-03-15T10:53:00;96708.59;;;12.14;59.25
57644;BME280;43474;46.510;6.686;2023-03-15T10:55:33;96699.13;;;12.35;61.40
57644;BME280;43474;46.510;6.686;2023-03-15T10:58:29;96702.50;;;12.48;58.43
57644;BME280;43474;46.510;6.686;2023-03-15T11:01:03;96699.13;;;12.35;54.82
57644;BME280;43474;46.510;6.686;2023-03-15T11:03:33;96702.25;;;12.32;56.71
57644;BME280;43474;46.510;6.686;2023-03-15T11:05:59;96690.75;;;12.27;54.47
57644;BME280;43474;46.510;6.686;2023-03-15T11:08:44;96687.38;;;12.65;56.57
57644;BME280;43474;46.510;6.686;2023-03-15T11:11:09;96675.50;;;12.73;51.88
57644;BME280;43474;46.510;6.686;2023-03-15T11:13:37;96683.41;;;12.67;52.21
57644;BME280;43474;46.510;6.686;2023-03-15T11:21:01;96684.63;;;12.43;54.28
57644;BME280;43474;46.510;6.686;2023-03-15T11:23:31;96674.06;;;12.65;57.07
57644;BME280;43474;46.510;6.686;2023-03-15T11:25:58;96675.63;;;12.44;52.20
57644;BME280;43474;46.510;6.686;2023-03-15T11:28:26;96658.81;;;12.77;54.60
57644;BME280;43474;46.510;6.686;2023-03-15T11:30:54;96675.28;;;12.74;59.76
57644;BME280;43474;46.510;6.686;2023-03-15T11:36:20;96667.84;;;12.76;48.19
57644;BME280;43474;46.510;6.686;2023-03-15T11:38:47;96661.25;;;12.79;56.59
57644;BME280;43474;46.510;6.686;2023-03-15T11:41:41;96665.34;;;12.86;51.40
57644;BME280;43474;46.510;6.686;2023-03-15T11:46:49;96642.88;;;12.77;52.90
57644;BME280;43474;46.510;6.686;2023-03-15T11:49:28;96661.03;;;12.47;54.58
57644;BME280;43474;46.510;6.686;2023-03-15T11:51:56;96644.91;;;12.70;53.33
57644;BME280;43474;46.510;6.686;2023-03-15T11:54:24;96644.09;;;12.53;54.86
57644;BME280;43474;46.510;6.686;2023-03-15T11:57:05;96635.94;;;12.93;52.47
57644;BME280;43474;46.510;6.686;2023-03-15T11:59:38;96644.72;;;13.37;53.98
57644;BME280;43474;46.510;6.686;2023-03-15T12:04:54;96641.00;;;12.78;51.52
57644;BME280;43474;46.510;6.686;2023-03-15T12:17:40;96627.03;;;12.65;49.55
57644;BME280;43474;46.510;6.686;2023-03-15T12:22:48;96617.75;;;12.68;51.82
57644;BME280;43474;46.510;6.686;2023-03-15T12:25:36;96628.09;;;12.86;48.03
57644;BME280;43474;46.510;6.686;2023-03-15T12:28:20;96614.31;;;12.51;45.68
57644;BME280;43474;46.510;6.686;2023-03-15T12:30:55;96625.03;;;12.05;48.43
57644;BME280;43474;46.510;6.686;2023-03-15T12:33:22;96614.25;;;11.95;47.75
57644;BME280;43474;46.510;6.686;2023-03-15T12:35:49;96617.78;;;11.84;47.01
57644;BME280;43474;46.510;6.686;2023-03-15T12:38:18;96618.78;;;12.28;48.99
57644;BME280;43474;46.510;6.686;2023-03-15T12:40:57;96609.50;;;12.14;52.33
57644;BME280;43474;46.510;6.686;2023-03-15T12:43:40;96601.50;;;12.48;51.93
57644;BME280;43474;46.510;6.686;2023-03-15T12:52:12;96607.50;;;12.04;46.87
57644;BME280;43474;46.510;6.686;2023-03-15T12:57:21;96596.69;;;11.94;45.78
57644;BME280;43474;46.510;6.686;2023-03-15T12:59:55;96581.84;;;11.81;50.53
57644;BME280;43474;46.510;6.686;2023-03-15T13:02:30;96603.13;;;11.98;48.78
57644;BME280;43474;46.510;6.686;2023-03-15T13:15:39;96583.66;;;12.09;46.39
57644;BME280;43474;46.510;6.686;2023-03-15T13:18:19;96577.84;;;12.12;50.33
57644;BME280;43474;46.510;6.686;2023-03-15T13:21:04;96575.28;;;12.18;48.28
57644;BME280;43474;46.510;6.686;2023-03-15T13:23:32;96571.66;;;12.07;49.11
57644;BME280;43474;46.510;6.686;2023-03-15T13:28:38;96565.88;;;12.10;45.29
57644;BME280;43474;46.510;6.686;2023-03-15T13:31:24;96584.28;;;12.16;45.48
57644;BME280;43474;46.510;6.686;2023-03-15T13:33:52;96583.31;;;12.23;47.91
57644;BME280;43474;46.510;6.686;2023-03-15T13:36:47;96571.91;;;12.05;46.64
57644;BME280;43474;46.510;6.686;2023-03-15T13:39:21;96593.06;;;12.17;47.16
57644;BME280;43474;46.510;6.686;2023-03-15T13:41:48;96584.69;;;11.92;46.76
57644;BME280;43474;46.510;6.686;2023-03-15T13:44:19;96593.06;;;12.00;45.73
57644;BME280;43474;46.510;6.686;2023-03-15T13:46:47;96583.47;;;11.82;45.80
57644;BME280;43474;46.510;6.686;2023-03-15T13:49:13;96571.09;;;11.88;45.84
57644;BME280;43474;46.510;6.686;2023-03-15T13:51:40;96583.66;;;11.93;45.91
57644;BME280;43474;46.510;6.686;2023-03-15T13:54:15;96591.78;;;12.03;42.43
57644;BME280;43474;46.510;6.686;2023-03-15T13:56:53;96566.34;;;11.90;48.67
57644;BME280;43474;46.510;6.686;2023-03-15T13:59:25;96577.31;;;11.94;45.57
57644;BME280;43474;46.510;6.686;2023-03-15T14:01:52;96575.13;;;11.90;42.92
57644;BME280;43474;46.510;6.686;2023-03-15T14:04:22;96562.84;;;11.73;40.03
57644;BME280;43474;46.510;6.686;2023-03-15T14:06:49;96553.75;;;11.69;44.10
57644;BME280;43474;46.510;6.686;2023-03-15T14:09:21;96551.81;;;11.81;46.36
57644;BME280;43474;46.510;6.686;2023-03-15T14:12:02;96564.16;;;11.87;41.90